createdAt,value
2019-02-25T00:01:02.451Z,98054.61
2019-02-25T00:07:08.493Z,98054.09
2019-02-25T00:09:39.928Z,98062.54
2019-02-25T00:12:11.118Z,98061.60
2019-02-25T00:14:43.057Z,98070.11
2019-02-25T00:17:14.250Z,98066.80
2019-02-25T00:19:45.908Z,98068.09
2019-02-25T00:22:17.110Z,98059.06
2019-02-25T00:24:50.767Z,98059.13
2019-02-25T00:27:21.953Z,98060.62
2019-02-25T00:29:53.158Z,98060.49
2019-02-25T00:32:24.771Z,98051.76
2019-02-25T00:34:55.989Z,98056.02
2019-02-25T00:37:27.243Z,98064.36
2019-02-25T00:39:58.917Z,98071.64
2019-02-25T00:42:30.116Z,98075.80
2019-02-25T00:45:01.950Z,98069.56
2019-02-25T00:47:33.144Z,98071.34
2019-02-25T00:50:05.895Z,98068.30
2019-02-25T00:52:37.465Z,98063.75
2019-02-25T00:55:10.413Z,98069.86
2019-02-25T00:57:42.068Z,98060.03
2019-02-25T01:00:14.463Z,98065.50
2019-02-25T01:02:45.962Z,98056.03
2019-02-25T01:05:17.658Z,98061.88
2019-02-25T01:07:48.924Z,98056.31
2019-02-25T01:10:20.111Z,98052.13
2019-02-25T01:12:52.045Z,98058.01
2019-02-25T01:15:24.044Z,98057.05
2019-02-25T01:17:55.371Z,98058.31
2019-02-25T01:20:26.937Z,98056.80
2019-02-25T01:22:58.121Z,98058.34
2019-02-25T01:25:29.910Z,98051.88
2019-02-25T01:28:01.074Z,98052.09
2019-02-25T01:30:32.646Z,98053.61
2019-02-25T01:33:03.921Z,98051.24
2019-02-25T01:35:35.263Z,98046.39
2019-02-25T01:38:07.145Z,98045.33
2019-02-25T01:40:38.986Z,98037.75
2019-02-25T01:43:10.222Z,98031.80
2019-02-25T01:45:41.895Z,98034.08
2019-02-25T01:48:13.095Z,98033.38
2019-02-25T01:50:44.301Z,98021.42
2019-02-25T01:53:15.950Z,98006.69
2019-02-25T01:55:47.143Z,98007.89
2019-02-25T01:58:18.920Z,98005.25
2019-02-25T02:00:50.103Z,98005.18
2019-02-25T02:03:21.972Z,98011.98
2019-02-25T02:05:53.196Z,98003.42
2019-02-25T02:08:24.813Z,97996.77
2019-02-25T02:10:55.924Z,97996.34
2019-02-25T02:13:28.017Z,97995.35
2019-02-25T02:15:59.207Z,97975.47
2019-02-25T02:18:30.909Z,97993.00
2019-02-25T02:21:02.217Z,97984.52
2019-02-25T02:23:35.717Z,97991.34
2019-02-25T02:26:06.950Z,97998.81
2019-02-25T02:28:38.119Z,98009.81
2019-02-25T02:31:10.027Z,98002.28
2019-02-25T02:33:42.167Z,97999.25
2019-02-25T02:36:13.369Z,98000.00
2019-02-25T02:38:46.586Z,98005.13
2019-02-25T02:41:18.329Z,97992.75
2019-02-25T02:43:49.660Z,97997.58
2019-02-25T02:46:56.815Z,98002.08
2019-02-25T02:49:28.009Z,98005.36
2019-02-25T02:51:59.195Z,98002.72
2019-02-25T02:54:31.506Z,98003.91
2019-02-25T02:57:03.081Z,98003.00
2019-02-25T02:59:35.037Z,97998.34
2019-02-25T03:02:09.871Z,97995.98
2019-02-25T03:04:43.499Z,98006.52
2019-02-25T03:07:15.101Z,98013.42
2019-02-25T03:09:47.650Z,98012.44
2019-02-25T03:12:18.947Z,98009.09
2019-02-25T03:14:50.118Z,98013.41
2019-02-25T03:17:21.921Z,98018.56
2019-02-25T03:19:53.803Z,98006.52
2019-02-25T03:22:25.044Z,98004.72
2019-02-25T03:24:57.037Z,98005.23
2019-02-25T03:27:28.321Z,97993.05
2019-02-25T03:29:59.960Z,97991.13
2019-02-25T03:32:31.168Z,97988.63
2019-02-25T03:35:03.230Z,97991.51
2019-02-25T03:37:35.032Z,97993.23
2019-02-25T03:40:07.695Z,98000.00
2019-02-25T03:42:38.955Z,97997.09
2019-02-25T03:45:12.042Z,97993.81
2019-02-25T03:47:44.773Z,97983.25
2019-02-25T03:50:16.100Z,97978.17
2019-02-25T03:52:47.936Z,97975.18
2019-02-25T03:55:19.758Z,97975.01
2019-02-25T03:57:50.907Z,97980.36
2019-02-25T04:00:22.853Z,97976.06
2019-02-25T04:02:54.075Z,97971.31
2019-02-25T04:05:25.477Z,97965.18
2019-02-25T04:07:57.488Z,97976.20
2019-02-25T04:10:29.033Z,97969.66
2019-02-25T04:13:00.419Z,97975.75
2019-02-25T04:15:35.790Z,97973.70
2019-02-25T04:18:06.973Z,97969.97
2019-02-25T04:20:38.168Z,97968.42
2019-02-25T04:23:10.508Z,97973.32
2019-02-25T04:25:42.075Z,97980.43
2019-02-25T04:28:14.127Z,97985.92
2019-02-25T04:30:46.018Z,97987.04
2019-02-25T04:33:17.191Z,97982.17
2019-02-25T04:35:48.931Z,97989.73
2019-02-25T04:38:20.122Z,97996.75
2019-02-25T04:40:51.910Z,98003.05
2019-02-25T04:43:24.053Z,97996.09
2019-02-25T04:45:57.534Z,97987.92
2019-02-25T04:48:28.949Z,97988.25
2019-02-25T04:51:00.151Z,97983.67
2019-02-25T04:53:31.351Z,97984.13
2019-02-25T04:56:02.904Z,97990.01
2019-02-25T04:58:34.116Z,97991.41
2019-02-25T05:01:08.160Z,97993.84
2019-02-25T05:03:40.804Z,97991.66
2019-02-25T05:06:12.006Z,97994.30
2019-02-25T05:08:43.198Z,97988.78
2019-02-25T05:11:15.298Z,97991.27
2019-02-25T05:13:48.543Z,97992.72
2019-02-25T05:16:19.955Z,97990.50
2019-02-25T05:18:51.152Z,97986.09
2019-02-25T05:21:23.036Z,97986.03
2019-02-25T05:23:54.975Z,97981.52
2019-02-25T05:26:26.157Z,97983.88
2019-02-25T05:28:57.934Z,97977.92
2019-02-25T05:31:29.899Z,97975.78
2019-02-25T05:34:01.095Z,97975.39
2019-02-25T05:36:32.363Z,97973.09
2019-02-25T05:39:07.486Z,97976.44
2019-02-25T05:41:38.943Z,97970.85
2019-02-25T05:44:10.542Z,97971.66
2019-02-25T05:46:42.024Z,97971.98
2019-02-25T05:49:15.975Z,97979.09
2019-02-25T05:51:47.171Z,97981.20
2019-02-25T05:54:18.946Z,97990.49
2019-02-25T05:56:51.729Z,97993.17
2019-02-25T05:59:22.925Z,97994.87
2019-02-25T06:01:54.126Z,97993.03
2019-02-25T06:04:25.490Z,98011.23
2019-02-25T06:06:56.927Z,98005.11
2019-02-25T06:09:28.134Z,98013.67
2019-02-25T06:12:00.057Z,98012.19
2019-02-25T06:14:31.435Z,98014.80
2019-02-25T06:17:03.053Z,98015.64
2019-02-25T06:19:35.035Z,98011.87
2019-02-25T06:22:07.046Z,98016.58
2019-02-25T06:24:38.246Z,98019.83
2019-02-25T06:27:10.081Z,98021.91
2019-02-25T06:29:42.239Z,98026.97
2019-02-25T06:32:13.924Z,98011.89
2019-02-25T06:34:45.112Z,98014.58
2019-02-25T06:37:16.945Z,98017.72
2019-02-25T06:39:49.089Z,98014.35
2019-02-25T06:42:21.944Z,98013.03
2019-02-25T06:44:53.113Z,98016.94
2019-02-25T06:47:25.175Z,98015.28
2019-02-25T06:49:56.940Z,98020.30
2019-02-25T06:52:28.138Z,98013.84
2019-02-25T06:55:00.054Z,98010.97
2019-02-25T06:57:31.238Z,98020.84
2019-02-25T07:00:04.288Z,98016.81
2019-02-25T07:02:38.350Z,98008.08
2019-02-25T07:05:26.433Z,98008.70
2019-02-25T07:08:01.275Z,98012.66
2019-02-25T07:10:48.314Z,98014.85
2019-02-25T07:13:42.654Z,98011.66
2019-02-25T07:16:38.854Z,98014.51
2019-02-25T07:19:41.210Z,98015.78
2019-02-25T07:22:26.785Z,98013.59
2019-02-25T07:25:17.033Z,98020.73
2019-02-25T07:28:16.891Z,98030.89
2019-02-25T07:31:13.397Z,98031.73
2019-02-25T07:33:57.800Z,98027.04
2019-02-25T07:36:36.746Z,98020.89
2019-02-25T07:39:26.345Z,98015.14
2019-02-25T07:42:20.017Z,98005.80
2019-02-25T07:45:13.140Z,98003.34
2019-02-25T07:47:52.917Z,98009.73
2019-02-25T07:50:59.119Z,98009.98
2019-02-25T07:53:48.575Z,98008.78
2019-02-25T07:56:44.915Z,98003.70
2019-02-25T07:59:31.307Z,98002.73
2019-02-25T08:02:40.986Z,98008.23
2019-02-25T08:05:33.872Z,98012.37
2019-02-25T08:08:11.601Z,98006.78
2019-02-25T08:10:56.034Z,98009.33
2019-02-25T08:13:36.213Z,98005.64
2019-02-25T08:16:30.917Z,98007.16
2019-02-25T08:19:30.106Z,98009.23
2019-02-25T08:22:15.021Z,98003.08
2019-02-25T08:25:02.045Z,98012.57
2019-02-25T08:27:44.982Z,98013.88
2019-02-25T08:30:41.472Z,98020.36
2019-02-25T08:33:47.140Z,98017.95
2019-02-25T08:37:43.349Z,98017.69
2019-02-25T08:40:55.076Z,98017.97
2019-02-25T08:43:44.302Z,98018.77
2019-02-25T08:46:26.677Z,98020.37
2019-02-25T08:49:01.389Z,98019.72
2019-02-25T08:51:32.660Z,98020.76
2019-02-25T08:54:04.888Z,98031.83
2019-02-25T08:56:36.098Z,98039.12
2019-02-25T08:59:08.126Z,98039.80
2019-02-25T09:01:43.205Z,98042.52
2019-02-25T09:04:16.746Z,98049.30
2019-02-25T09:06:47.943Z,98048.45
2019-02-25T09:09:19.896Z,98050.81
2019-02-25T09:11:51.870Z,98047.98
2019-02-25T09:14:23.054Z,98047.89
2019-02-25T09:16:55.795Z,98038.38
2019-02-25T09:19:27.256Z,98047.06
2019-02-25T09:21:59.057Z,98041.77
2019-02-25T09:24:31.006Z,98040.92
2019-02-25T09:27:04.755Z,98041.69
2019-02-25T09:29:35.941Z,98038.55
2019-02-25T09:32:07.605Z,98026.67
2019-02-25T09:34:38.967Z,98030.80
2019-02-25T09:37:10.209Z,98022.05
2019-02-25T09:39:43.762Z,98034.59
2019-02-25T09:42:14.950Z,98032.83
2019-02-25T09:44:46.892Z,98043.77
2019-02-25T09:47:18.082Z,98032.64
2019-02-25T09:49:51.118Z,98026.57
2019-02-25T09:52:22.374Z,98026.16
2019-02-25T09:54:54.853Z,98018.59
2019-02-25T09:57:26.041Z,98018.13
2019-02-25T09:59:58.758Z,98020.69
2019-02-25T10:02:29.974Z,98020.02
2019-02-25T10:05:01.140Z,98018.02
2019-02-25T10:07:32.409Z,98026.33
2019-02-25T10:10:04.154Z,98028.47
2019-02-25T10:12:36.898Z,98027.96
2019-02-25T10:15:09.658Z,98022.02
2019-02-25T10:17:41.290Z,98015.93
2019-02-25T10:20:13.029Z,98017.19
2019-02-25T10:22:45.773Z,98017.47
2019-02-25T10:25:16.943Z,98012.96
2019-02-25T10:27:49.649Z,98011.03
2019-02-25T10:30:21.126Z,98010.59
2019-02-25T10:32:52.906Z,98001.79
2019-02-25T10:35:24.915Z,97993.83
2019-02-25T10:37:58.016Z,97985.47
2019-02-25T10:40:29.195Z,97975.52
2019-02-25T10:43:00.993Z,97976.53
2019-02-25T10:45:32.254Z,97965.47
2019-02-25T10:48:03.961Z,97956.73
2019-02-25T10:50:36.045Z,97951.66
2019-02-25T10:53:07.892Z,97961.80
2019-02-25T10:55:45.084Z,97961.69
2019-02-25T10:58:16.787Z,97949.66
2019-02-25T11:00:47.991Z,97953.27
2019-02-25T11:03:20.019Z,97952.36
2019-02-25T11:05:53.966Z,97943.59
2019-02-25T11:08:26.209Z,97942.13
2019-02-25T11:11:10.271Z,97933.82
2019-02-25T11:13:42.027Z,97930.30
2019-02-25T11:16:22.776Z,97926.72
2019-02-25T11:19:13.200Z,97923.27
2019-02-25T11:21:57.985Z,97918.14
2019-02-25T11:24:57.730Z,97913.45
2019-02-25T11:27:55.796Z,97907.02
2019-02-25T11:30:54.231Z,97916.55
2019-02-25T11:33:56.497Z,97907.64
2019-02-25T11:36:47.687Z,97899.48
2019-02-25T11:39:32.508Z,97899.72
2019-02-25T11:42:32.969Z,97894.49
2019-02-25T11:45:29.600Z,97900.73
2019-02-25T11:48:27.901Z,97896.35
2019-02-25T11:51:20.979Z,97894.97
2019-02-25T11:54:11.797Z,97894.84
2019-02-25T11:56:43.255Z,97897.72
2019-02-25T11:59:15.466Z,97888.50
2019-02-25T12:01:46.937Z,97883.81
2019-02-25T12:04:18.879Z,97881.09
2019-02-25T12:06:50.075Z,97870.91
2019-02-25T12:09:22.092Z,97869.80
2019-02-25T12:11:53.950Z,97864.39
2019-02-25T12:14:25.440Z,97863.16
2019-02-25T12:16:57.000Z,97859.00
2019-02-25T12:19:28.214Z,97860.91
2019-02-25T12:22:00.797Z,97861.14
2019-02-25T12:24:32.002Z,97858.52
2019-02-25T12:27:03.766Z,97852.13
2019-02-25T12:29:35.073Z,97855.81
2019-02-25T12:32:06.895Z,97847.72
2019-02-25T12:34:38.890Z,97844.87
2019-02-25T12:37:10.202Z,97842.92
2019-02-25T12:39:42.925Z,97837.35
2019-02-25T12:42:14.125Z,97837.55
2019-02-25T12:44:45.935Z,97831.30
2019-02-25T12:47:17.889Z,97821.28
2019-02-25T12:49:49.187Z,97823.25
2019-02-25T12:52:20.449Z,97821.88
2019-02-25T12:54:52.251Z,97819.67
2019-02-25T12:57:24.215Z,97821.31
2019-02-25T12:59:55.416Z,97817.83
2019-02-25T13:02:27.028Z,97811.78
2019-02-25T13:05:00.424Z,97801.45
2019-02-25T13:07:32.902Z,97796.88
2019-02-25T13:10:04.595Z,97793.52
2019-02-25T13:12:35.946Z,97798.97
2019-02-25T13:17:42.090Z,97792.27
2019-02-25T13:20:14.256Z,97791.73
2019-02-25T13:22:45.950Z,97798.89
2019-02-25T13:25:17.227Z,97798.80
2019-02-25T13:27:49.139Z,97807.80
2019-02-25T13:30:21.302Z,97806.81
2019-02-25T13:32:52.990Z,97794.36
2019-02-25T13:35:24.336Z,97797.33
2019-02-25T13:37:56.786Z,97795.20
2019-02-25T13:40:28.772Z,97789.50
2019-02-25T13:42:59.982Z,97801.20
2019-02-25T13:45:31.655Z,97796.02
2019-02-25T13:48:03.095Z,97796.04
2019-02-25T13:50:35.019Z,97792.05
2019-02-25T13:53:06.299Z,97776.52
2019-02-25T13:55:38.026Z,97783.67
2019-02-25T13:58:09.835Z,97774.59
2019-02-25T14:00:41.911Z,97782.08
2019-02-25T14:03:13.787Z,97774.26
2019-02-25T14:05:44.997Z,97776.26
2019-02-25T14:08:16.498Z,97775.39
2019-02-25T14:10:48.079Z,97768.05
2019-02-25T14:13:25.887Z,97768.58
2019-02-25T14:15:57.447Z,97763.98
2019-02-25T14:18:29.031Z,97758.55
2019-02-25T14:21:00.984Z,97750.63
2019-02-25T14:23:32.339Z,97738.58
2019-02-25T14:26:04.078Z,97731.28
2019-02-25T14:28:36.159Z,97736.75
2019-02-25T14:31:08.472Z,97726.34
2019-02-25T14:33:40.101Z,97725.85
2019-02-25T14:36:11.933Z,97721.15
2019-02-25T14:38:43.167Z,97734.34
2019-02-25T14:41:16.155Z,97726.20
2019-02-25T14:43:49.203Z,97732.84
2019-02-25T14:46:22.622Z,97736.14
2019-02-25T14:48:54.009Z,97731.73
2019-02-25T14:51:25.209Z,97735.42
2019-02-25T14:53:56.954Z,97731.08
2019-02-25T14:56:29.938Z,97738.60
2019-02-25T14:59:05.510Z,97737.28
2019-02-25T15:01:34.698Z,97740.31
2019-02-25T15:04:06.505Z,97741.69
2019-02-25T15:06:39.734Z,97750.09
2019-02-25T15:09:14.257Z,97748.38
2019-02-25T15:11:46.943Z,97742.47
2019-02-25T15:14:19.238Z,97747.25
2019-02-25T15:16:53.119Z,97736.23
2019-02-25T15:19:24.919Z,97744.27
2019-02-25T15:21:58.450Z,97741.36
2019-02-25T15:24:30.027Z,97736.03
2019-02-25T15:27:02.400Z,97728.61
2019-02-25T15:29:35.325Z,97724.13
2019-02-25T15:32:08.079Z,97717.39
2019-02-25T15:34:39.951Z,97707.41
2019-02-25T15:37:11.884Z,97705.67
2019-02-25T15:39:45.748Z,97700.19
2019-02-25T15:42:17.118Z,97696.24
2019-02-25T15:44:49.712Z,97707.64
2019-02-25T15:47:22.820Z,97706.45
2019-02-25T15:49:55.375Z,97703.14
2019-02-25T15:52:27.754Z,97702.59
2019-02-25T15:55:01.887Z,97700.02
2019-02-25T15:57:34.924Z,97707.70
2019-02-25T16:00:07.525Z,97701.26
2019-02-25T16:02:39.007Z,97709.14
2019-02-25T16:05:11.136Z,97721.05
2019-02-25T16:07:44.996Z,97716.58
2019-02-25T16:10:18.526Z,97713.20
2019-02-25T16:12:53.782Z,97713.74
2019-02-25T16:15:25.055Z,97723.77
2019-02-25T16:17:56.815Z,97726.45
2019-02-25T16:20:32.240Z,97733.64
2019-02-25T16:23:03.277Z,97732.30
2019-02-25T16:25:35.973Z,97733.00
2019-02-25T16:28:08.138Z,97734.52
2019-02-25T16:30:42.086Z,97731.19
2019-02-25T16:33:14.485Z,97731.89
2019-02-25T16:35:46.293Z,97729.19
2019-02-25T16:38:21.094Z,97729.55
2019-02-25T16:40:54.638Z,97734.14
2019-02-25T16:43:25.361Z,97734.22
2019-02-25T16:45:56.901Z,97735.24
2019-02-25T16:48:30.210Z,97734.80
2019-02-25T16:51:02.714Z,97727.05
2019-02-25T16:53:38.841Z,97727.22
2019-02-25T16:56:10.050Z,97722.75
2019-02-25T16:58:41.925Z,97730.25
2019-02-25T17:01:13.236Z,97733.11
2019-02-25T17:03:47.742Z,97731.94
2019-02-25T17:06:20.744Z,97731.47
2019-02-25T17:08:53.523Z,97733.22
2019-02-25T17:11:25.078Z,97728.73
2019-02-25T17:13:57.786Z,97726.31
2019-02-25T17:16:29.910Z,97725.41
2019-02-25T17:19:01.868Z,97726.04
2019-02-25T17:21:33.187Z,97717.98
2019-02-25T17:24:05.710Z,97712.08
2019-02-25T17:26:37.994Z,97715.27
2019-02-25T17:29:10.497Z,97719.67
2019-02-25T17:31:41.925Z,97716.48
2019-02-25T17:34:17.003Z,97718.41
2019-02-25T17:36:50.106Z,97720.16
2019-02-25T17:39:21.993Z,97718.89
2019-02-25T17:41:53.182Z,97716.70
2019-02-25T17:44:27.769Z,97723.66
2019-02-25T17:47:00.420Z,97724.59
2019-02-25T17:49:31.665Z,97724.38
2019-02-25T17:52:04.014Z,97735.12
2019-02-25T17:54:37.743Z,97741.95
2019-02-25T17:57:11.794Z,97744.22
2019-02-25T17:59:44.183Z,97743.72
2019-02-25T18:02:16.016Z,97745.50
2019-02-25T18:04:49.242Z,97741.58
2019-02-25T18:07:20.972Z,97745.61
2019-02-25T18:09:52.227Z,97737.59
2019-02-25T18:12:25.609Z,97726.06
2019-02-25T18:14:58.850Z,97723.00
2019-02-25T18:17:31.055Z,97718.70
2019-02-25T18:20:03.097Z,97724.17
2019-02-25T18:22:36.732Z,97723.38
2019-02-25T18:25:07.998Z,97719.22
2019-02-25T18:27:41.492Z,97717.94
2019-02-25T18:30:13.445Z,97722.55
2019-02-25T18:32:45.466Z,97712.41
2019-02-25T18:35:18.578Z,97707.81
2019-02-25T18:37:49.942Z,97707.76
2019-02-25T18:40:23.876Z,97709.20
2019-02-25T18:42:56.443Z,97701.39
2019-02-25T18:45:28.298Z,97701.92
2019-02-25T18:48:00.075Z,97707.08
2019-02-25T18:50:31.619Z,97709.81
2019-02-25T18:53:30.186Z,97710.60
2019-02-25T18:56:02.273Z,97714.48
2019-02-25T18:58:35.272Z,97716.53
2019-02-25T19:01:09.700Z,97713.50
2019-02-25T19:03:41.113Z,97714.30
2019-02-25T19:06:14.577Z,97716.72
2019-02-25T19:08:47.316Z,97708.30
2019-02-25T19:11:21.213Z,97706.07
2019-02-25T19:13:53.961Z,97711.62
2019-02-25T19:16:25.153Z,97710.67
2019-02-25T19:19:08.066Z,97708.61
2019-02-25T19:21:40.744Z,97705.58
2019-02-25T19:24:14.841Z,97710.91
2019-02-25T19:26:48.594Z,97702.17
2019-02-25T19:29:21.779Z,97697.92
2019-02-25T19:31:53.938Z,97702.27
2019-02-25T19:34:25.126Z,97703.88
2019-02-25T19:37:00.178Z,97694.63
2019-02-25T19:39:29.975Z,97689.72
2019-02-25T19:42:02.183Z,97685.91
2019-02-25T19:44:34.350Z,97683.28
2019-02-25T19:47:07.985Z,97674.76
2019-02-25T19:49:41.407Z,97676.33
2019-02-25T19:52:14.355Z,97673.08
2019-02-25T19:54:48.175Z,97679.12
2019-02-25T19:57:21.027Z,97677.37
2019-02-25T19:59:52.996Z,97670.23
2019-02-25T20:02:27.031Z,97666.13
2019-02-25T20:04:57.957Z,97665.12
2019-02-25T20:07:30.909Z,97669.32
2019-02-25T20:10:02.138Z,97668.11
2019-02-25T20:12:35.181Z,97668.21
2019-02-25T20:15:11.205Z,97671.30
2019-02-25T20:17:44.158Z,97678.20
2019-02-25T20:20:16.390Z,97687.12
2019-02-25T20:22:48.120Z,97676.30
2019-02-25T20:25:23.721Z,97681.03
2019-02-25T20:27:55.095Z,97676.59
2019-02-25T20:30:28.826Z,97669.31
2019-02-25T20:33:03.207Z,97671.70
2019-02-25T20:35:33.932Z,97682.25
2019-02-25T20:38:05.330Z,97688.70
2019-02-25T20:40:37.003Z,97691.77
2019-02-25T20:43:08.306Z,97693.20
2019-02-25T20:45:39.958Z,97697.96
2019-02-25T20:48:11.523Z,97693.61
2019-02-25T20:50:44.649Z,97694.63
2019-02-25T20:53:16.056Z,97696.64
2019-02-25T20:55:48.212Z,97686.75
2019-02-25T20:58:23.241Z,97688.53
2019-02-25T21:00:54.930Z,97692.65
2019-02-25T21:03:27.648Z,97692.72
2019-02-25T21:05:59.895Z,97693.66
2019-02-25T21:08:31.091Z,97688.41
2019-02-25T21:11:08.588Z,97680.77
2019-02-25T21:13:37.992Z,97680.70
2019-02-25T21:16:10.501Z,97676.79
2019-02-25T21:18:41.941Z,97680.06
2019-02-25T21:21:14.431Z,97682.06
2019-02-25T21:23:46.895Z,97692.05
2019-02-25T21:26:18.844Z,97688.96
2019-02-25T21:28:50.023Z,97692.23
2019-02-25T21:31:23.999Z,97693.16
2019-02-25T21:33:56.559Z,97690.16
2019-02-25T21:36:29.525Z,97689.72
2019-02-25T21:39:00.945Z,97681.66
2019-02-25T21:41:32.585Z,97681.33
2019-02-25T21:44:04.101Z,97674.63
2019-02-25T21:46:36.037Z,97666.64
2019-02-25T21:49:08.408Z,97677.20
2019-02-25T21:51:41.640Z,97671.14
2019-02-25T21:54:16.179Z,97672.78
2019-02-25T21:56:48.053Z,97676.89
2019-02-25T21:59:19.965Z,97679.92
2019-02-25T22:01:52.956Z,97685.06
2019-02-25T22:04:24.808Z,97686.53
2019-02-25T22:06:58.165Z,97684.52
2019-02-25T22:09:36.377Z,97684.52
2019-02-25T22:12:02.927Z,97677.62
2019-02-25T22:14:34.777Z,97679.73
2019-02-25T22:17:05.987Z,97676.70
2019-02-25T22:19:39.681Z,97675.86
2019-02-25T22:22:11.418Z,97672.41
2019-02-25T22:24:44.940Z,97667.47
2019-02-25T22:27:16.694Z,97671.64
2019-02-25T22:29:49.703Z,97676.66
2019-02-25T22:32:21.112Z,97669.86
2019-02-25T22:34:53.368Z,97676.89
2019-02-25T22:37:26.668Z,97671.32
2019-02-25T22:39:59.518Z,97674.84
2019-02-25T22:42:32.987Z,97669.08
2019-02-25T22:45:05.658Z,97668.53
2019-02-25T22:47:36.915Z,97671.35
2019-02-25T22:50:10.710Z,97671.11
2019-02-25T22:52:42.733Z,97673.11
2019-02-25T22:55:15.385Z,97664.59
2019-02-25T23:01:17.924Z,97659.47
2019-02-25T23:03:52.161Z,97663.23
2019-02-25T23:06:23.144Z,97667.24
2019-02-25T23:08:56.445Z,97658.50
2019-02-25T23:11:27.909Z,97656.52
2019-02-25T23:13:59.110Z,97659.86
2019-02-25T23:16:30.953Z,97652.36
2019-02-25T23:19:02.140Z,97658.98
2019-02-25T23:21:33.993Z,97665.67
2019-02-25T23:24:07.934Z,97654.61
2019-02-25T23:26:40.816Z,97661.59
2019-02-25T23:29:13.221Z,97657.77
2019-02-25T23:31:46.435Z,97661.05
2019-02-25T23:34:17.998Z,97653.17
2019-02-25T23:36:51.750Z,97656.02
2019-02-25T23:39:23.533Z,97654.74
2019-02-25T23:41:55.027Z,97654.09
2019-02-25T23:44:26.219Z,97648.70
2019-02-25T23:47:00.198Z,97656.83
2019-02-25T23:49:30.923Z,97657.77
2019-02-25T23:52:02.102Z,97665.88
2019-02-25T23:54:33.317Z,97656.45
2019-02-25T23:57:05.056Z,97661.16
2019-02-25T23:59:40.472Z,97663.18
